createdAt,value
2022-11-06T00:01:10.170Z,50.70
2022-11-06T00:03:36.843Z,50.65
2022-11-06T00:06:30.811Z,50.66
2022-11-06T00:09:00.170Z,50.58
2022-11-06T00:11:27.058Z,50.29
2022-11-06T00:13:53.998Z,50.29
2022-11-06T00:16:21.123Z,50.20
2022-11-06T00:18:48.417Z,50.18
2022-11-06T00:21:18.703Z,50.13
2022-11-06T00:23:46.274Z,50.13
2022-11-06T00:26:17.944Z,50.27
2022-11-06T00:28:44.910Z,50.68
2022-11-06T00:31:14.495Z,50.85
2022-11-06T00:33:41.303Z,50.58
2022-11-06T00:36:11.494Z,50.39
2022-11-06T00:38:38.054Z,50.43
2022-11-06T00:41:06.817Z,50.31
2022-11-06T00:43:34.299Z,50.25
2022-11-06T00:46:19.768Z,50.29
2022-11-06T00:48:46.491Z,50.35
2022-11-06T00:51:17.059Z,50.70
2022-11-06T00:53:44.787Z,50.93
2022-11-06T00:56:14.167Z,50.73
2022-11-06T00:58:41.990Z,50.65
2022-11-06T01:01:20.697Z,50.82
2022-11-06T01:03:52.594Z,51.33
2022-11-06T01:06:22.726Z,50.92
2022-11-06T01:08:50.121Z,50.94
2022-11-06T01:11:22.567Z,50.81
2022-11-06T01:13:52.937Z,50.71
2022-11-06T01:16:20.558Z,50.64
2022-11-06T01:18:48.055Z,50.39
2022-11-06T01:21:20.412Z,50.68
2022-11-06T01:23:51.871Z,50.94
2022-11-06T01:26:28.988Z,50.99
2022-11-06T01:29:05.068Z,51.03
2022-11-06T01:31:33.010Z,51.63
2022-11-06T01:34:00.921Z,52.12
2022-11-06T01:36:28.779Z,51.62
2022-11-06T01:38:58.044Z,52.28
2022-11-06T01:41:35.377Z,53.90
2022-11-06T01:44:35.899Z,54.07
2022-11-06T01:47:05.062Z,55.03
2022-11-06T01:49:36.849Z,54.58
2022-11-06T01:52:10.132Z,54.20
2022-11-06T01:54:39.993Z,55.12
2022-11-06T01:57:07.446Z,54.49
2022-11-06T01:59:37.835Z,54.08
2022-11-06T02:02:05.026Z,53.95
2022-11-06T02:04:43.082Z,53.65
2022-11-06T02:07:10.761Z,53.54
2022-11-06T02:09:37.435Z,53.74
2022-11-06T02:12:33.207Z,53.28
2022-11-06T02:15:05.740Z,53.67
2022-11-06T02:17:41.557Z,54.35
2022-11-06T02:20:34.089Z,54.14
2022-11-06T02:23:12.743Z,55.12
2022-11-06T02:26:08.311Z,56.11
2022-11-06T02:28:43.878Z,56.37
2022-11-06T02:31:15.801Z,56.12
2022-11-06T02:33:57.535Z,56.18
2022-11-06T02:36:32.757Z,57.31
2022-11-06T02:39:03.531Z,57.59
2022-11-06T02:41:35.746Z,58.06
2022-11-06T02:44:07.932Z,58.43
2022-11-06T02:46:49.454Z,60.50
2022-11-06T02:49:24.796Z,58.89
2022-11-06T02:51:56.867Z,59.46
2022-11-06T02:54:26.603Z,58.91
2022-11-06T02:56:58.055Z,58.88
2022-11-06T03:00:03.537Z,57.38
2022-11-06T03:02:37.813Z,58.02
2022-11-06T03:05:14.094Z,57.25
2022-11-06T03:07:50.689Z,56.47
2022-11-06T03:10:17.518Z,56.40
2022-11-06T03:12:56.546Z,57.31
2022-11-06T03:15:27.768Z,56.00
2022-11-06T03:18:43.410Z,56.38
2022-11-06T03:21:48.195Z,56.10
2022-11-06T03:24:18.126Z,55.11
2022-11-06T03:26:53.389Z,56.03
2022-11-06T03:29:27.534Z,55.71
2022-11-06T03:31:57.820Z,55.44
2022-11-06T03:34:37.735Z,54.97
2022-11-06T03:37:15.996Z,56.28
2022-11-06T03:39:48.580Z,55.48
2022-11-06T03:42:21.144Z,55.47
2022-11-06T03:44:53.670Z,54.97
2022-11-06T03:47:25.677Z,56.36
2022-11-06T03:50:11.997Z,57.07
2022-11-06T03:52:44.480Z,56.31
2022-11-06T03:55:28.170Z,55.22
2022-11-06T03:57:58.944Z,54.19
2022-11-06T04:00:25.638Z,54.68
2022-11-06T04:03:07.992Z,55.80
2022-11-06T04:05:40.629Z,55.82
2022-11-06T04:08:28.351Z,55.13
2022-11-06T04:11:19.480Z,55.04
2022-11-06T04:14:02.118Z,55.14
2022-11-06T04:16:52.121Z,55.14
2022-11-06T04:19:20.749Z,55.16
2022-11-06T04:22:10.489Z,55.97
2022-11-06T04:25:05.834Z,56.48
2022-11-06T04:28:08.808Z,56.18
2022-11-06T04:30:50.723Z,57.38
2022-11-06T04:33:37.068Z,56.31
2022-11-06T04:36:10.975Z,56.76
2022-11-06T04:38:42.910Z,56.36
2022-11-06T04:41:12.702Z,56.17
2022-11-06T04:43:50.670Z,56.56
2022-11-06T04:46:26.266Z,56.27
2022-11-06T04:48:54.275Z,58.24
2022-11-06T04:51:26.448Z,58.13
2022-11-06T04:53:54.286Z,57.31
2022-11-06T04:56:29.482Z,57.43
2022-11-06T04:58:57.593Z,58.42
2022-11-06T05:01:24.441Z,60.06
2022-11-06T05:03:51.218Z,59.52
2022-11-06T05:06:18.232Z,59.21
2022-11-06T05:08:45.081Z,58.60
2022-11-06T05:11:12.027Z,58.48
2022-11-06T05:13:38.646Z,59.39
2022-11-06T05:16:06.053Z,58.69
2022-11-06T05:18:32.903Z,59.19
2022-11-06T05:21:32.984Z,59.54
2022-11-06T05:23:59.556Z,59.38
2022-11-06T05:26:26.687Z,60.19
2022-11-06T05:28:53.336Z,60.56
2022-11-06T05:31:19.958Z,61.32
2022-11-06T05:33:46.636Z,60.86
2022-11-06T05:36:15.299Z,61.40
2022-11-06T05:38:41.972Z,62.57
2022-11-06T05:41:08.583Z,62.12
2022-11-06T05:43:35.276Z,65.45
2022-11-06T05:46:02.086Z,65.66
2022-11-06T05:48:29.837Z,63.97
2022-11-06T05:51:06.510Z,62.67
2022-11-06T05:53:36.087Z,62.67
2022-11-06T05:56:10.762Z,62.52
2022-11-06T05:58:37.926Z,62.88
2022-11-06T06:01:05.353Z,62.39
2022-11-06T06:03:35.051Z,62.89
2022-11-06T06:06:01.648Z,62.52
2022-11-06T06:08:28.206Z,62.09
2022-11-06T06:10:54.829Z,61.78
2022-11-06T06:13:21.581Z,61.69
2022-11-06T06:15:48.191Z,61.50
2022-11-06T06:18:15.291Z,61.71
2022-11-06T06:20:42.140Z,65.24
2022-11-06T06:23:09.978Z,63.56
2022-11-06T06:25:36.583Z,62.86
2022-11-06T06:28:03.470Z,64.72
2022-11-06T06:30:30.127Z,65.39
2022-11-06T06:32:56.704Z,70.84
2022-11-06T06:35:23.318Z,67.25
2022-11-06T06:37:54.437Z,64.83
2022-11-06T06:40:23.158Z,64.75
2022-11-06T06:42:50.055Z,64.47
2022-11-06T06:45:17.125Z,63.75
2022-11-06T06:47:43.725Z,64.79
2022-11-06T06:50:10.426Z,65.48
2022-11-06T06:52:37.267Z,65.61
2022-11-06T06:55:04.946Z,64.75
2022-11-06T06:57:31.687Z,64.32
2022-11-06T06:59:58.403Z,63.84
2022-11-06T07:02:25.185Z,63.27
2022-11-06T07:04:51.891Z,62.99
2022-11-06T07:07:18.500Z,62.24
2022-11-06T07:09:45.163Z,63.95
2022-11-06T07:12:11.822Z,63.84
2022-11-06T07:14:38.500Z,63.24
2022-11-06T07:17:05.110Z,62.99
2022-11-06T07:19:31.694Z,63.24
2022-11-06T07:21:58.273Z,63.88
2022-11-06T07:24:24.901Z,65.42
2022-11-06T07:26:51.514Z,64.46
2022-11-06T07:29:18.125Z,66.45
2022-11-06T07:31:44.726Z,65.23
2022-11-06T07:34:11.592Z,63.50
2022-11-06T07:36:38.226Z,61.49
2022-11-06T07:39:04.909Z,63.97
2022-11-06T07:41:31.482Z,63.36
2022-11-06T07:43:58.112Z,62.83
2022-11-06T07:46:24.786Z,61.98
2022-11-06T07:48:51.468Z,61.16
2022-11-06T07:51:18.151Z,61.58
2022-11-06T07:53:44.746Z,61.89
2022-11-06T07:56:11.503Z,61.50
2022-11-06T07:58:38.903Z,60.88
2022-11-06T08:01:06.195Z,61.62
2022-11-06T08:03:34.416Z,62.94
2022-11-06T08:06:05.063Z,62.71
2022-11-06T08:08:31.719Z,60.77
2022-11-06T08:11:10.096Z,61.64
2022-11-06T08:13:37.220Z,60.83
2022-11-06T08:16:08.702Z,61.80
2022-11-06T08:18:36.422Z,62.02
2022-11-06T08:21:04.217Z,61.48
2022-11-06T08:23:31.663Z,61.98
2022-11-06T08:26:00.867Z,62.12
2022-11-06T08:28:28.023Z,61.32
2022-11-06T08:30:54.998Z,61.75
2022-11-06T08:33:23.337Z,62.05
2022-11-06T08:35:50.093Z,63.67
2022-11-06T08:38:17.198Z,63.29
2022-11-06T08:40:47.041Z,64.30
2022-11-06T08:43:16.259Z,64.02
2022-11-06T08:45:43.750Z,64.53
2022-11-06T08:48:10.967Z,66.38
2022-11-06T08:50:40.604Z,66.98
2022-11-06T08:53:07.841Z,67.04
2022-11-06T08:55:36.898Z,68.91
2022-11-06T08:58:04.314Z,67.79
2022-11-06T09:00:33.513Z,68.16
2022-11-06T09:03:10.200Z,67.10
2022-11-06T09:05:41.283Z,66.22
2022-11-06T09:08:09.291Z,65.69
2022-11-06T09:10:37.529Z,67.55
2022-11-06T09:13:04.648Z,67.58
2022-11-06T09:15:32.027Z,67.25
2022-11-06T09:17:58.704Z,66.42
2022-11-06T09:20:26.486Z,65.57
2022-11-06T09:22:53.330Z,67.37
2022-11-06T09:25:20.341Z,67.32
2022-11-06T09:27:57.685Z,68.46
2022-11-06T09:30:29.490Z,68.64
2022-11-06T09:32:58.651Z,68.23
2022-11-06T09:35:27.163Z,67.86
2022-11-06T09:37:53.830Z,68.86
2022-11-06T09:40:28.385Z,68.15
2022-11-06T09:44:02.751Z,68.43
2022-11-06T09:46:26.118Z,69.08
2022-11-06T09:49:07.202Z,69.13
2022-11-06T09:51:38.323Z,69.92
2022-11-06T09:54:29.298Z,70.83
2022-11-06T09:57:02.582Z,69.49
2022-11-06T09:59:35.230Z,70.95
2022-11-06T10:02:02.166Z,71.38
2022-11-06T10:04:49.404Z,71.26
2022-11-06T10:07:34.863Z,72.54
2022-11-06T10:10:04.138Z,71.40
2022-11-06T10:12:49.363Z,72.35
2022-11-06T10:15:30.539Z,70.94
2022-11-06T10:18:17.331Z,71.24
2022-11-06T10:20:47.816Z,70.27
2022-11-06T10:23:34.777Z,71.12
2022-11-06T10:26:07.038Z,70.35
2022-11-06T10:28:39.360Z,70.09
2022-11-06T10:31:17.103Z,68.42
2022-11-06T10:33:57.108Z,71.74
2022-11-06T10:36:35.683Z,70.94
2022-11-06T10:39:05.711Z,72.12
2022-11-06T10:41:35.425Z,69.87
2022-11-06T10:44:07.814Z,68.26
2022-11-06T10:46:41.929Z,67.73
2022-11-06T10:49:29.538Z,66.90
2022-11-06T10:52:33.144Z,67.78
2022-11-06T10:55:25.829Z,67.62
2022-11-06T10:58:02.900Z,67.83
2022-11-06T11:00:29.703Z,68.18
2022-11-06T11:03:02.295Z,67.65
2022-11-06T11:05:42.828Z,68.45
2022-11-06T11:08:48.597Z,67.25
2022-11-06T11:11:18.439Z,66.88
2022-11-06T11:13:51.028Z,67.38
2022-11-06T11:16:48.855Z,67.05
2022-11-06T11:19:25.038Z,66.12
2022-11-06T11:22:03.318Z,69.44
2022-11-06T11:24:30.348Z,67.70
2022-11-06T11:27:01.227Z,69.56
2022-11-06T11:29:32.142Z,69.46
2022-11-06T11:32:08.419Z,69.13
2022-11-06T11:34:48.420Z,68.88
2022-11-06T11:37:36.452Z,68.13
2022-11-06T11:40:37.811Z,66.64
2022-11-06T11:43:19.520Z,65.68
2022-11-06T11:46:10.896Z,65.57
2022-11-06T11:48:47.120Z,66.02
2022-11-06T11:51:29.073Z,67.25
2022-11-06T11:54:19.615Z,67.64
2022-11-06T11:57:04.222Z,68.45
2022-11-06T11:59:51.917Z,67.80
2022-11-06T12:02:28.506Z,69.55
2022-11-06T12:05:02.241Z,68.16
2022-11-06T12:07:43.429Z,67.08
2022-11-06T12:10:35.415Z,67.10
2022-11-06T12:13:05.906Z,67.23
2022-11-06T12:15:47.218Z,68.11
2022-11-06T12:18:21.628Z,68.04
2022-11-06T12:20:51.104Z,68.29
2022-11-06T12:23:28.517Z,66.81
2022-11-06T12:26:24.256Z,66.16
2022-11-06T12:29:03.665Z,67.39
2022-11-06T12:31:37.254Z,67.46
2022-11-06T12:34:40.522Z,65.17
2022-11-06T12:37:36.200Z,67.07
2022-11-06T12:40:44.382Z,66.36
2022-11-06T12:43:25.934Z,67.08
2022-11-06T12:46:19.156Z,70.60
2022-11-06T12:48:45.835Z,68.23
2022-11-06T12:51:35.855Z,66.79
2022-11-06T12:54:29.745Z,66.46
2022-11-06T12:57:05.878Z,66.21
2022-11-06T12:59:45.692Z,66.27
2022-11-06T13:02:36.415Z,65.48
2022-11-06T13:05:12.074Z,66.91
2022-11-06T13:07:41.354Z,64.37
2022-11-06T13:10:11.003Z,63.43
2022-11-06T13:12:54.538Z,63.18
2022-11-06T13:15:52.505Z,62.23
2022-11-06T13:18:43.194Z,62.56
2022-11-06T13:21:12.395Z,63.12
2022-11-06T13:23:51.565Z,64.28
2022-11-06T13:29:17.003Z,63.30
2022-11-06T13:31:57.399Z,62.56
2022-11-06T13:34:35.589Z,62.28
2022-11-06T13:37:06.416Z,63.17
2022-11-06T13:39:39.170Z,62.68
2022-11-06T13:42:19.229Z,63.40
2022-11-06T13:44:46.199Z,62.59
2022-11-06T13:47:19.829Z,62.39
2022-11-06T13:50:13.924Z,63.06
2022-11-06T13:52:49.378Z,62.79
2022-11-06T13:55:48.606Z,63.09
2022-11-06T13:58:34.118Z,62.86
2022-11-06T14:01:19.110Z,62.32
2022-11-06T14:04:03.817Z,62.32
2022-11-06T14:06:33.333Z,62.34
2022-11-06T14:09:09.129Z,60.86
2022-11-06T14:11:45.103Z,61.19
2022-11-06T14:14:26.175Z,61.61
2022-11-06T14:17:25.073Z,60.64
2022-11-06T14:19:54.239Z,62.12
2022-11-06T14:22:30.044Z,62.48
2022-11-06T14:25:01.693Z,62.43
2022-11-06T14:27:31.902Z,61.76
2022-11-06T14:30:20.209Z,61.52
2022-11-06T14:32:48.651Z,62.48
2022-11-06T14:35:33.289Z,63.83
2022-11-06T14:38:46.151Z,61.65
2022-11-06T14:41:34.149Z,60.17
2022-11-06T14:44:14.279Z,60.47
2022-11-06T14:46:53.143Z,60.28
2022-11-06T14:49:30.975Z,60.01
2022-11-06T14:52:05.032Z,60.06
2022-11-06T14:54:35.537Z,60.33
2022-11-06T14:57:02.794Z,60.39
2022-11-06T14:59:35.119Z,60.88
2022-11-06T15:02:15.346Z,60.77
2022-11-06T15:04:46.711Z,60.15
2022-11-06T15:08:02.575Z,60.48
2022-11-06T15:10:44.195Z,59.99
2022-11-06T15:13:17.247Z,59.48
2022-11-06T15:15:52.388Z,58.78
2022-11-06T15:18:25.307Z,58.30
2022-11-06T15:20:56.823Z,58.33
2022-11-06T15:23:57.103Z,57.79
2022-11-06T15:26:38.787Z,58.49
2022-11-06T15:29:28.449Z,57.44
2022-11-06T15:32:03.138Z,56.91
2022-11-06T15:34:46.355Z,56.57
2022-11-06T15:37:16.509Z,57.50
2022-11-06T15:39:59.377Z,55.84
2022-11-06T15:42:34.052Z,56.17
2022-11-06T15:45:27.848Z,55.04
2022-11-06T15:48:05.196Z,54.44
2022-11-06T15:50:34.264Z,54.57
2022-11-06T15:53:16.309Z,54.45
2022-11-06T15:55:52.584Z,54.55
2022-11-06T15:58:19.099Z,54.83
2022-11-06T16:00:46.414Z,53.93
2022-11-06T16:03:16.927Z,53.42
2022-11-06T16:05:44.638Z,52.46
2022-11-06T16:08:14.892Z,52.13
2022-11-06T16:10:44.030Z,51.84
2022-11-06T16:13:16.958Z,51.51
2022-11-06T16:15:49.547Z,52.29
2022-11-06T16:18:32.565Z,51.54
2022-11-06T16:21:11.733Z,52.66
2022-11-06T16:23:40.030Z,52.38
2022-11-06T16:26:13.191Z,51.50
2022-11-06T16:28:49.120Z,52.19
2022-11-06T16:31:25.518Z,53.44
2022-11-06T16:34:00.650Z,53.91
2022-11-06T16:36:29.599Z,53.63
2022-11-06T16:39:17.736Z,54.30
2022-11-06T16:41:59.590Z,54.79
2022-11-06T16:44:41.411Z,54.29
2022-11-06T16:47:10.837Z,53.73
2022-11-06T16:49:53.649Z,54.23
2022-11-06T16:52:29.692Z,55.10
2022-11-06T16:55:04.177Z,55.58
2022-11-06T16:57:42.570Z,55.89
2022-11-06T17:00:21.127Z,55.65
2022-11-06T17:02:52.665Z,55.30
2022-11-06T17:05:22.377Z,55.50
2022-11-06T17:08:04.617Z,55.36
2022-11-06T17:11:12.670Z,56.56
2022-11-06T17:13:42.948Z,57.87
2022-11-06T17:16:18.783Z,59.96
2022-11-06T17:18:45.882Z,61.05
2022-11-06T17:21:15.222Z,61.49
2022-11-06T17:23:42.716Z,63.09
2022-11-06T17:26:30.881Z,63.18
2022-11-06T17:28:59.408Z,63.09
2022-11-06T17:31:26.956Z,64.28
2022-11-06T17:33:53.809Z,63.33
2022-11-06T17:36:25.319Z,63.74
2022-11-06T17:38:52.782Z,62.43
2022-11-06T17:41:32.593Z,63.23
2022-11-06T17:44:08.102Z,62.33
2022-11-06T17:46:37.736Z,61.69
2022-11-06T17:49:05.158Z,62.79
2022-11-06T17:51:50.179Z,61.84
2022-11-06T17:54:18.873Z,61.42
2022-11-06T17:56:51.686Z,60.83
2022-11-06T17:59:18.470Z,59.94
2022-11-06T18:01:47.787Z,59.52
2022-11-06T18:04:14.654Z,59.38
2022-11-06T18:06:45.739Z,59.23
2022-11-06T18:09:13.705Z,58.96
2022-11-06T18:11:41.535Z,59.46
2022-11-06T18:14:09.541Z,59.62
2022-11-06T18:16:43.384Z,59.52
2022-11-06T18:19:14.308Z,60.82
2022-11-06T18:21:41.170Z,60.29
2022-11-06T18:24:08.354Z,59.65
2022-11-06T18:26:37.274Z,59.47
2022-11-06T18:29:05.715Z,59.20
2022-11-06T18:31:32.503Z,58.79
2022-11-06T18:33:59.241Z,60.02
2022-11-06T18:36:26.595Z,59.84
2022-11-06T18:38:53.228Z,59.93
2022-11-06T18:41:21.784Z,59.82
2022-11-06T18:43:48.917Z,60.58
2022-11-06T18:46:18.071Z,59.96
2022-11-06T18:48:45.366Z,60.28
2022-11-06T18:51:27.493Z,60.60
2022-11-06T18:54:02.508Z,60.18
2022-11-06T18:56:29.904Z,60.28
2022-11-06T18:58:56.633Z,60.25
2022-11-06T19:01:23.499Z,60.21
2022-11-06T19:03:50.454Z,60.03
2022-11-06T19:06:19.966Z,60.32
2022-11-06T19:08:47.735Z,60.35
2022-11-06T19:11:15.865Z,59.96
2022-11-06T19:13:47.595Z,59.80
2022-11-06T19:16:15.139Z,60.60
2022-11-06T19:18:42.248Z,60.95
2022-11-06T19:21:11.593Z,60.65
2022-11-06T19:23:41.880Z,60.00
2022-11-06T19:26:30.059Z,60.63
2022-11-06T19:28:58.369Z,60.10
2022-11-06T19:31:29.227Z,60.48
2022-11-06T19:34:00.291Z,60.46
2022-11-06T19:36:27.889Z,60.10
2022-11-06T19:38:54.723Z,59.56
2022-11-06T19:41:21.285Z,59.96
2022-11-06T19:43:48.347Z,59.68
2022-11-06T19:46:23.870Z,60.43
2022-11-06T19:48:52.557Z,59.63
2022-11-06T19:51:19.179Z,59.62
2022-11-06T19:53:45.841Z,59.31
2022-11-06T19:56:16.595Z,59.90
2022-11-06T19:58:43.630Z,62.22
2022-11-06T20:01:13.154Z,62.52
2022-11-06T20:03:40.081Z,61.26
2022-11-06T20:06:08.368Z,60.94
2022-11-06T20:08:36.850Z,60.33
2022-11-06T20:11:12.572Z,60.19
2022-11-06T20:13:40.629Z,60.17
2022-11-06T20:16:10.644Z,59.62
2022-11-06T20:18:37.858Z,59.45
2022-11-06T20:21:07.269Z,59.43
2022-11-06T20:23:34.846Z,59.61
2022-11-06T20:26:01.462Z,60.03
2022-11-06T20:28:28.225Z,60.80
2022-11-06T20:30:55.814Z,60.95
2022-11-06T20:33:22.844Z,62.16
2022-11-06T20:35:49.603Z,62.31
2022-11-06T20:38:16.307Z,61.92
2022-11-06T20:40:43.011Z,61.73
2022-11-06T20:43:10.072Z,61.40
2022-11-06T20:45:37.586Z,62.54
2022-11-06T20:48:05.447Z,61.30
2022-11-06T20:50:32.664Z,61.51
2022-11-06T20:52:59.568Z,61.43
2022-11-06T20:55:26.217Z,61.66
2022-11-06T20:57:52.821Z,61.34
2022-11-06T21:00:19.540Z,61.50
2022-11-06T21:02:46.763Z,61.09
2022-11-06T21:05:15.064Z,60.89
2022-11-06T21:07:42.152Z,61.28
2022-11-06T21:10:11.034Z,60.83
2022-11-06T21:12:37.996Z,61.36
2022-11-06T21:15:05.136Z,61.50
2022-11-06T21:17:31.853Z,61.65
2022-11-06T21:19:58.702Z,62.44
2022-11-06T21:22:25.340Z,64.01
2022-11-06T21:24:51.921Z,63.92
2022-11-06T21:27:18.585Z,65.73
2022-11-06T21:29:45.229Z,68.36
2022-11-06T21:32:11.943Z,69.59
2022-11-06T21:34:38.601Z,69.13
2022-11-06T21:37:05.189Z,66.43
2022-11-06T21:39:36.241Z,64.99
2022-11-06T21:42:05.010Z,64.05
2022-11-06T21:44:31.995Z,63.83
2022-11-06T21:46:58.606Z,63.15
2022-11-06T21:49:25.220Z,63.06
2022-11-06T21:51:51.813Z,62.73
2022-11-06T21:54:37.161Z,62.40
2022-11-06T21:57:03.996Z,63.02
2022-11-06T21:59:30.717Z,63.09
2022-11-06T22:01:57.627Z,62.54
2022-11-06T22:04:24.537Z,63.40
2022-11-06T22:06:52.488Z,62.74
2022-11-06T22:09:24.462Z,62.32
2022-11-06T22:11:51.743Z,62.46
2022-11-06T22:14:18.336Z,63.21
2022-11-06T22:16:47.026Z,63.63
2022-11-06T22:19:15.336Z,63.38
2022-11-06T22:21:42.302Z,63.46
2022-11-06T22:24:11.804Z,64.47
2022-11-06T22:26:38.444Z,66.13
2022-11-06T22:29:12.034Z,66.20
2022-11-06T22:31:39.113Z,65.48
2022-11-06T22:34:06.138Z,64.73
2022-11-06T22:36:32.850Z,65.56
2022-11-06T22:39:03.394Z,66.70
2022-11-06T22:41:30.008Z,66.15
2022-11-06T22:44:00.567Z,65.53
2022-11-06T22:46:28.096Z,66.23
2022-11-06T22:48:54.960Z,66.61
2022-11-06T22:51:27.846Z,65.44
2022-11-06T22:53:55.270Z,65.06
2022-11-06T22:56:23.437Z,65.46
2022-11-06T22:58:58.130Z,65.90
2022-11-06T23:01:27.362Z,65.93
2022-11-06T23:03:57.899Z,65.08
2022-11-06T23:06:25.704Z,66.76
2022-11-06T23:08:53.119Z,66.25
2022-11-06T23:11:21.289Z,65.71
2022-11-06T23:13:47.990Z,65.24
2022-11-06T23:16:39.069Z,65.33
2022-11-06T23:19:06.014Z,65.22
2022-11-06T23:21:32.682Z,64.96
2022-11-06T23:23:59.235Z,64.12
2022-11-06T23:26:25.936Z,64.33
2022-11-06T23:28:55.358Z,64.12
2022-11-06T23:31:22.350Z,63.58
2022-11-06T23:33:49.029Z,65.06
2022-11-06T23:36:16.977Z,64.09
2022-11-06T23:38:43.989Z,64.46
2022-11-06T23:41:33.962Z,63.95
2022-11-06T23:44:01.736Z,64.95
2022-11-06T23:46:30.636Z,64.18
2022-11-06T23:48:58.067Z,63.46
2022-11-06T23:51:27.098Z,63.31
2022-11-06T23:53:54.403Z,63.33
2022-11-06T23:56:21.046Z,64.73
2022-11-06T23:58:47.663Z,66.05
